Time;durP1;ratioP1;P1;durP2;ratioP2;P2;SDS_P1;SDS_P2;PMS_P1;PMS_P2;Temp;Humidity;BMP_temperature;BMP_pressure;BME280_temperature;BME280_humidity;BME280_pressure;Samples;Min_cycle;Max_cycle;Signal;HPM_P1;HPM_P2
2024/04/05 00:01:59;;;;;;;7.07;3.33;;;11.60;99.80;;;;;;6302016;28;20216;-63
2024/04/05 00:05:00;;;;;;;6.00;3.40;;;11.60;99.60;;;;;;6302330;28;20190;-62
2024/04/05 00:08:01;;;;;;;7.67;2.80;;;11.70;99.50;;;;;;6302473;28;20232;-63
2024/04/05 00:11:02;;;;;;;5.83;3.07;;;11.70;99.40;;;;;;6303020;28;20252;-63
2024/04/05 00:14:03;;;;;;;5.63;2.80;;;11.70;99.30;;;;;;6302979;28;20483;-63
2024/04/05 00:17:03;;;;;;;6.27;3.33;;;11.70;99.20;;;;;;6302719;28;20181;-63
2024/04/05 00:20:05;;;;;;;9.10;3.50;;;11.70;99.10;;;;;;6302411;28;20181;-63
2024/04/05 00:23:06;;;;;;;8.17;3.40;;;11.80;98.90;;;;;;6302462;28;20304;-63
2024/04/05 00:26:09;;;;;;;6.83;3.33;;;11.80;98.90;;;;;;6285288;28;20428;-63
2024/04/05 00:29:10;;;;;;;6.57;3.40;;;11.80;98.90;;;;;;6285090;28;20269;-63
2024/04/05 00:32:11;;;;;;;6.40;3.00;;;11.80;98.70;;;;;;6301455;28;20446;-64
2024/04/05 00:35:11;;;;;;;8.93;3.53;;;11.80;98.80;;;;;;6300822;28;20284;-63
2024/04/05 00:38:12;;;;;;;6.33;3.67;;;11.80;98.80;;;;;;6301059;28;20644;-63
2024/04/05 00:41:13;;;;;;;5.20;3.43;;;11.80;98.80;;;;;;6301127;28;20292;-63
2024/04/05 00:44:14;;;;;;;5.67;3.90;;;11.80;98.80;;;;;;6301557;28;20189;-63
2024/04/05 00:47:15;;;;;;;9.50;3.50;;;11.80;99.00;;;;;;6301432;28;20196;-63
2024/04/05 00:50:15;;;;;;;7.13;3.50;;;11.80;98.90;;;;;;6301933;28;20185;-64
2024/04/05 00:53:26;;;;;;;5.50;2.93;;;11.80;98.80;;;;;;6303390;28;20204;-64
2024/04/05 00:56:29;;;;;;;7.53;3.20;;;11.80;98.90;;;;;;6303793;28;20217;-64
2024/04/05 00:59:32;;;;;;;7.47;3.33;;;11.80;98.90;;;;;;6301628;28;20519;-64
2024/04/05 01:02:32;;;;;;;7.17;3.00;;;11.80;98.80;;;;;;6301444;28;20990;-63
2024/04/05 01:05:34;;;;;;;8.93;3.30;;;11.80;98.80;;;;;;6304744;28;20437;-64
2024/04/05 01:08:35;;;;;;;5.20;3.27;;;11.90;98.80;;;;;;6301942;28;20315;-63
2024/04/05 01:11:36;;;;;;;8.03;3.80;;;11.90;98.70;;;;;;6300884;28;20775;-64
2024/04/05 01:14:37;;;;;;;6.77;3.50;;;11.90;98.60;;;;;;6301128;28;20464;-62
2024/04/05 01:17:37;;;;;;;8.23;3.30;;;11.90;98.50;;;;;;6301496;28;20212;-63
2024/04/05 01:20:38;;;;;;;9.90;3.50;;;11.90;98.50;;;;;;6301615;28;20185;-63
2024/04/05 01:23:43;;;;;;;3.90;2.67;;;11.90;98.50;;;;;;6301219;28;20231;-65
2024/04/05 01:26:43;;;;;;;4.77;3.30;;;11.90;98.50;;;;;;6300238;28;20963;-64
2024/04/05 01:29:44;;;;;;;6.90;3.00;;;11.90;98.50;;;;;;6300042;28;20522;-64
2024/04/05 01:32:53;;;;;;;7.57;3.40;;;11.90;98.50;;;;;;6283321;28;20224;-64
2024/04/05 01:35:54;;;;;;;5.73;3.10;;;11.90;98.50;;;;;;6300604;28;20540;-64
2024/04/05 01:38:55;;;;;;;6.17;3.00;;;12.00;98.30;;;;;;6300248;28;20428;-64
2024/04/05 01:41:55;;;;;;;8.40;3.20;;;12.00;98.20;;;;;;6300564;28;20216;-63
2024/04/05 01:44:56;;;;;;;8.83;2.60;;;12.00;98.10;;;;;;6303213;28;20275;-65
2024/04/05 01:47:57;;;;;;;4.83;3.27;;;12.10;97.90;;;;;;6305686;28;20197;-64
2024/04/05 01:50:58;;;;;;;9.60;3.23;;;12.10;97.90;;;;;;6307127;28;20203;-64
2024/04/05 01:53:58;;;;;;;6.07;2.60;;;12.00;97.90;;;;;;6305779;28;20295;-64
2024/04/05 01:56:59;;;;;;;4.10;2.60;;;12.10;97.70;;;;;;6305088;28;20196;-64
2024/04/05 02:00:00;;;;;;;6.47;2.63;;;12.10;97.70;;;;;;6304994;28;20327;-63
2024/04/05 02:03:01;;;;;;;7.10;3.00;;;12.10;97.60;;;;;;6304923;28;20661;-64
2024/04/05 02:06:14;;;;;;;7.10;3.37;;;12.10;97.50;;;;;;6304594;28;20279;-64
2024/04/05 02:09:14;;;;;;;7.33;3.20;;;12.10;97.50;;;;;;6304559;28;20513;-64
2024/04/05 02:12:20;;;;;;;5.17;2.40;;;12.10;97.50;;;;;;6304214;28;20438;-64
2024/04/05 02:15:20;;;;;;;6.17;3.07;;;12.10;97.50;;;;;;6304123;28;20277;-63
2024/04/05 02:18:21;;;;;;;5.13;2.50;;;12.10;97.50;;;;;;6304267;28;20436;-63
2024/04/05 02:21:23;;;;;;;8.63;2.60;;;12.10;97.70;;;;;;6303866;28;20197;-64
2024/04/05 02:24:24;;;;;;;4.87;2.70;;;12.20;97.60;;;;;;6303933;28;20276;-63
2024/04/05 02:27:24;;;;;;;5.40;2.47;;;12.20;97.50;;;;;;6303815;28;20486;-64
2024/04/05 02:30:25;;;;;;;6.77;3.00;;;12.20;97.50;;;;;;6287121;28;20526;-64
2024/04/05 02:33:26;;;;;;;6.83;2.80;;;12.20;97.40;;;;;;6303890;28;20246;-65
2024/04/05 02:36:27;;;;;;;7.10;2.80;;;12.20;97.30;;;;;;6303874;28;20221;-63
2024/04/05 02:39:28;;;;;;;11.27;2.83;;;12.20;97.30;;;;;;6287088;28;20428;-63
2024/04/05 02:42:29;;;;;;;5.50;2.80;;;12.20;97.40;;;;;;6303485;28;20211;-63
2024/04/05 02:45:30;;;;;;;4.57;3.07;;;12.20;97.40;;;;;;6303787;28;20199;-63
2024/04/05 02:48:30;;;;;;;7.17;2.97;;;12.10;97.40;;;;;;6303692;28;20199;-64
2024/04/05 02:51:31;;;;;;;9.53;2.67;;;12.10;97.70;;;;;;6303563;28;20424;-64
2024/04/05 02:54:32;;;;;;;6.23;3.30;;;12.10;97.70;;;;;;6287064;28;20217;-64
2024/04/05 02:57:33;;;;;;;4.90;2.60;;;12.10;97.80;;;;;;6302850;28;20192;-63
2024/04/05 03:00:36;;;;;;;6.27;2.70;;;12.10;97.70;;;;;;6303448;28;20590;-63
2024/04/05 03:03:37;;;;;;;11.43;3.20;;;12.00;97.70;;;;;;6287383;28;20308;-62
2024/04/05 03:06:38;;;;;;;7.87;3.07;;;12.00;97.80;;;;;;6303703;28;20432;-63
2024/04/05 03:09:40;;;;;;;4.80;3.40;;;11.90;97.90;;;;;;6303623;28;20231;-64
2024/04/05 03:12:41;;;;;;;9.90;3.33;;;11.90;98.30;;;;;;6305402;28;20300;-63
2024/04/05 03:15:41;;;;;;;12.47;3.17;;;12.00;98.40;;;;;;6292807;28;20425;-63
2024/04/05 03:18:42;;;;;;;6.00;2.90;;;12.00;98.30;;;;;;6305540;28;20275;-64
2024/04/05 03:21:43;;;;;;;5.57;3.27;;;12.00;98.30;;;;;;6286691;28;20279;-63
2024/04/05 03:24:43;;;;;;;6.50;3.03;;;12.10;98.10;;;;;;6302935;28;20209;-64
2024/04/05 03:27:44;;;;;;;9.80;3.10;;;12.00;97.90;;;;;;6302887;28;20220;-64
2024/04/05 03:30:45;;;;;;;8.70;3.43;;;12.00;97.90;;;;;;6302583;28;20199;-64
2024/04/05 03:33:46;;;;;;;7.33;3.13;;;12.00;97.90;;;;;;6302580;28;20205;-64
2024/04/05 03:36:47;;;;;;;5.70;3.27;;;12.00;98.10;;;;;;6285584;28;20271;-64
2024/04/05 03:39:54;;;;;;;7.40;3.40;;;11.90;98.30;;;;;;6302688;28;20207;-64
2024/04/05 03:42:55;;;;;;;8.47;3.67;;;11.80;98.50;;;;;;6302298;28;20281;-65
2024/04/05 03:45:56;;;;;;;5.97;3.63;;;11.80;98.60;;;;;;6302622;28;20432;-63
2024/04/05 03:48:56;;;;;;;6.63;3.37;;;11.80;98.90;;;;;;6302610;28;20604;-62
2024/04/05 03:51:57;;;;;;;7.50;3.60;;;11.80;99.00;;;;;;6285490;28;20201;-63
2024/04/05 03:54:58;;;;;;;7.90;3.67;;;11.90;99.00;;;;;;6302125;28;20220;-64
2024/04/05 03:57:59;;;;;;;8.33;4.60;;;11.90;98.90;;;;;;6301972;28;20220;-63
2024/04/05 04:01:00;;;;;;;6.10;3.73;;;11.80;98.90;;;;;;6268770;28;20535;-64
2024/04/05 04:04:01;;;;;;;6.37;3.60;;;11.80;99.00;;;;;;6302106;28;20284;-63
2024/04/05 04:07:01;;;;;;;5.73;3.70;;;11.80;99.10;;;;;;6301813;28;20471;-64
2024/04/05 04:10:03;;;;;;;7.50;3.80;;;11.80;99.20;;;;;;6300767;28;20193;-64
2024/04/05 04:13:04;;;;;;;12.97;4.30;;;11.70;99.30;;;;;;6301817;28;20209;-64
2024/04/05 04:16:05;;;;;;;4.90;3.33;;;11.70;99.60;;;;;;6301655;28;20439;-64
2024/04/05 04:19:07;;;;;;;4.00;2.83;;;11.70;99.70;;;;;;6301797;28;20497;-64
2024/04/05 04:22:09;;;;;;;8.40;4.00;;;11.70;100.00;;;;;;6301682;28;20553;-64
2024/04/05 04:25:11;;;;;;;9.27;4.40;;;11.70;100.00;;;;;;6303131;28;20861;-64
2024/04/05 04:28:12;;;;;;;11.27;4.20;;;11.70;100.00;;;;;;6300762;28;20514;-64
2024/04/05 04:31:21;;;;;;;5.50;3.70;;;11.80;100.00;;;;;;6301177;28;20443;-64
2024/04/05 04:34:22;;;;;;;10.87;4.00;;;11.80;99.90;;;;;;6301404;28;20308;-64
2024/04/05 04:37:23;;;;;;;9.00;3.37;;;11.90;99.90;;;;;;6301680;28;20662;-64
2024/04/05 04:40:24;;;;;;;4.60;2.90;;;11.90;99.80;;;;;;6301345;28;20258;-64
2024/04/05 04:43:25;;;;;;;4.67;2.97;;;11.90;99.70;;;;;;6300825;28;20569;-64
2024/04/05 04:46:26;;;;;;;11.97;3.80;;;12.00;99.50;;;;;;6301022;28;20185;-64
2024/04/05 04:49:27;;;;;;;5.30;2.90;;;12.00;99.20;;;;;;6300415;28;20473;-64
2024/04/05 04:52:27;;;;;;;5.67;2.70;;;12.10;99.10;;;;;;6300385;28;20188;-64
2024/04/05 04:55:28;;;;;;;6.70;3.20;;;12.10;98.80;;;;;;6300282;28;20186;-64
2024/04/05 04:58:29;;;;;;;6.10;2.60;;;12.20;98.60;;;;;;6299855;28;20303;-64
2024/04/05 05:01:30;;;;;;;8.77;3.33;;;12.20;98.40;;;;;;6299405;28;20670;-64
2024/04/05 05:04:30;;;;;;;4.43;2.50;;;12.20;98.20;;;;;;6300342;28;20264;-63
2024/04/05 05:07:31;;;;;;;12.07;3.60;;;12.20;98.00;;;;;;6283249;28;20243;-63
2024/04/05 05:10:32;;;;;;;7.33;2.80;;;12.20;97.90;;;;;;6283048;28;20291;-64
2024/04/05 05:13:33;;;;;;;9.50;2.70;;;12.20;97.70;;;;;;6299476;28;20204;-64
2024/04/05 05:16:33;;;;;;;7.00;3.40;;;12.20;97.70;;;;;;6299680;28;20700;-63
2024/04/05 05:19:34;;;;;;;5.90;2.80;;;12.20;97.70;;;;;;6282941;28;20280;-63
2024/04/05 05:22:35;;;;;;;3.73;3.03;;;12.20;97.80;;;;;;6299775;28;20181;-64
2024/04/05 05:25:37;;;;;;;5.63;3.00;;;12.20;97.70;;;;;;6299432;28;20185;-64
2024/04/05 05:28:38;;;;;;;7.90;3.10;;;12.30;97.70;;;;;;6282909;28;20523;-63
2024/04/05 05:31:38;;;;;;;6.17;2.50;;;12.30;97.60;;;;;;6299304;28;20451;-64
2024/04/05 05:34:39;;;;;;;5.63;2.97;;;12.40;97.50;;;;;;6299231;28;20209;-63
2024/04/05 05:37:41;;;;;;;6.47;2.60;;;12.50;97.40;;;;;;6298899;28;20181;-64
2024/04/05 05:40:42;;;;;;;11.37;3.40;;;12.60;97.20;;;;;;6282507;28;20190;-65
2024/04/05 05:43:43;;;;;;;6.40;2.83;;;12.70;96.90;;;;;;6299595;28;20958;-64
2024/04/05 05:46:44;;;;;;;6.67;3.53;;;12.70;96.60;;;;;;6300480;28;20185;-65
2024/04/05 05:49:44;;;;;;;7.20;2.70;;;12.80;96.20;;;;;;6289352;28;20228;-65
2024/04/05 05:52:45;;;;;;;11.90;3.30;;;12.80;95.80;;;;;;6307802;28;20478;-64
2024/04/05 05:55:50;;;;;;;6.50;2.87;;;12.80;95.60;;;;;;6307668;28;20255;-65
2024/04/05 05:58:51;;;;;;;8.23;2.70;;;12.70;95.80;;;;;;6302727;28;20178;-65
2024/04/05 06:01:52;;;;;;;11.13;3.83;;;12.80;95.80;;;;;;6299514;28;20424;-64
2024/04/05 06:04:52;;;;;;;8.10;3.20;;;12.80;95.90;;;;;;6282177;28;20204;-65
2024/04/05 06:07:53;;;;;;;8.50;2.97;;;12.80;96.10;;;;;;6298664;28;20229;-64
2024/04/05 06:10:55;;;;;;;10.83;3.13;;;12.80;96.20;;;;;;6298909;28;20204;-65
2024/04/05 06:13:56;;;;;;;4.37;2.43;;;12.80;96.20;;;;;;6282536;28;20688;-65
2024/04/05 06:16:57;;;;;;;2.87;2.60;;;12.90;96.10;;;;;;6298926;28;20497;-64
2024/04/05 06:19:58;;;;;;;6.93;3.03;;;13.00;95.90;;;;;;6299247;28;20182;-64
2024/04/05 06:22:59;;;;;;;4.60;2.57;;;13.00;95.60;;;;;;6298660;28;20474;-66
2024/04/05 06:26:00;;;;;;;5.37;3.27;;;13.10;95.50;;;;;;6298836;28;20192;-64
2024/04/05 06:29:04;;;;;;;4.93;3.00;;;13.20;95.10;;;;;;6298935;28;20225;-64
2024/04/05 06:32:05;;;;;;;8.13;3.13;;;13.30;94.70;;;;;;6299355;28;20436;-65
2024/04/05 06:35:07;;;;;;;4.00;3.13;;;13.30;94.40;;;;;;6303163;28;20464;-66
2024/04/05 06:38:09;;;;;;;6.47;3.73;;;13.50;94.20;;;;;;6303091;28;20221;-64
2024/04/05 06:41:09;;;;;;;7.97;3.00;;;13.60;93.90;;;;;;6302969;28;20526;-66
2024/04/05 06:44:10;;;;;;;6.53;3.37;;;13.70;93.50;;;;;;6303452;28;20546;-66
2024/04/05 06:47:11;;;;;;;5.77;2.80;;;13.90;93.20;;;;;;6303027;28;20198;-65
2024/04/05 06:50:12;;;;;;;5.10;2.87;;;14.10;92.90;;;;;;6302831;28;20239;-64
2024/04/05 06:53:12;;;;;;;7.43;3.17;;;14.50;91.80;;;;;;6302962;28;20217;-65
2024/04/05 06:56:13;;;;;;;4.87;2.10;;;14.80;90.50;;;;;;6303016;28;20234;-65
2024/04/05 06:59:14;;;;;;;4.53;2.60;;;14.90;88.10;;;;;;6302912;28;20196;-66
2024/04/05 07:02:16;;;;;;;5.97;3.03;;;15.00;87.40;;;;;;6313911;28;20208;-65
2024/04/05 07:05:17;;;;;;;4.50;2.27;;;15.10;87.10;;;;;;6303927;28;20193;-66
2024/04/05 07:08:18;;;;;;;8.40;2.30;;;15.30;86.50;;;;;;6302369;28;20835;-65
2024/04/05 07:11:18;;;;;;;11.77;2.47;;;15.50;86.70;;;;;;6302277;28;20196;-66
2024/04/05 07:14:20;;;;;;;5.50;2.50;;;15.70;85.40;;;;;;6302450;28;20308;-66
2024/04/05 07:17:21;;;;;;;5.00;2.30;;;15.90;84.90;;;;;;6285474;28;20836;-66
2024/04/05 07:20:26;;;;;;;7.03;1.87;;;16.00;84.30;;;;;;6303280;28;20200;-64
2024/04/05 07:23:26;;;;;;;3.20;1.90;;;16.20;84.10;;;;;;6302342;28;20535;-65
2024/04/05 07:26:27;;;;;;;6.30;2.13;;;16.30;83.20;;;;;;6302499;28;20519;-64
2024/04/05 07:29:28;;;;;;;5.97;1.90;;;16.40;82.60;;;;;;6302590;28;20194;-65
2024/04/05 07:32:29;;;;;;;4.07;1.83;;;16.50;82.10;;;;;;6302299;28;20264;-64
2024/04/05 07:35:30;;;;;;;3.73;2.17;;;16.40;80.30;;;;;;6302952;28;20646;-66
2024/04/05 07:38:32;;;;;;;3.67;1.60;;;16.30;80.60;;;;;;6304295;28;20416;-63
2024/04/05 07:41:32;;;;;;;3.97;2.20;;;16.40;80.50;;;;;;6304049;28;20677;-64
2024/04/05 07:44:35;;;;;;;4.40;2.03;;;16.50;80.70;;;;;;6296752;28;20614;-65
2024/04/05 07:47:36;;;;;;;4.50;2.17;;;16.50;79.40;;;;;;6313657;28;20436;-65
2024/04/05 07:50:37;;;;;;;6.37;2.10;;;16.70;80.00;;;;;;6289622;28;20654;-66
2024/04/05 07:53:39;;;;;;;5.00;2.20;;;16.90;78.60;;;;;;6302974;28;20475;-66
2024/04/05 07:56:39;;;;;;;3.10;1.63;;;17.00;78.20;;;;;;6301936;28;20220;-65
2024/04/05 07:59:41;;;;;;;4.43;2.00;;;17.00;77.70;;;;;;6301677;28;20845;-66
2024/04/05 08:02:47;;;;;;;3.47;2.23;;;17.00;77.80;;;;;;6301664;28;20280;-66
2024/04/05 08:05:48;;;;;;;4.33;2.20;;;17.10;77.40;;;;;;6301724;28;20459;-66
2024/04/05 08:08:49;;;;;;;4.47;2.57;;;17.00;76.70;;;;;;6301128;28;20460;-66
2024/04/05 08:11:50;;;;;;;3.87;2.30;;;16.90;77.20;;;;;;6301835;28;20447;-65
2024/04/05 08:14:52;;;;;;;5.80;2.10;;;16.80;77.10;;;;;;6302235;28;20294;-66
2024/04/05 08:17:55;;;;;;;4.93;2.07;;;16.90;77.80;;;;;;6302004;28;20205;-67
2024/04/05 08:20:55;;;;;;;5.27;2.30;;;17.00;78.00;;;;;;6302326;28;20506;-66
2024/04/05 08:23:56;;;;;;;4.80;2.03;;;17.10;78.00;;;;;;6302566;28;20540;-66
2024/04/05 08:26:57;;;;;;;4.73;2.00;;;17.30;77.80;;;;;;6303021;28;20189;-66
2024/04/05 08:29:58;;;;;;;4.17;2.20;;;17.70;76.10;;;;;;6303300;28;20194;-65
2024/04/05 08:32:59;;;;;;;4.40;2.27;;;17.70;74.50;;;;;;6303209;28;20209;-65
2024/04/05 08:36:00;;;;;;;2.47;1.80;;;17.90;74.20;;;;;;6302090;28;20271;-66
2024/04/05 08:39:00;;;;;;;5.33;2.27;;;18.00;73.60;;;;;;6302155;28;20191;-66
2024/04/05 08:42:13;;;;;;;3.73;1.40;;;18.10;73.30;;;;;;6309509;28;20181;-66
2024/04/05 08:45:15;;;;;;;2.80;1.73;;;18.30;72.40;;;;;;6321519;28;20201;-67
2024/04/05 08:48:20;;;;;;;4.50;1.97;;;18.50;71.80;;;;;;6306416;28;20216;-67
2024/04/05 08:51:21;;;;;;;4.27;1.67;;;18.70;71.90;;;;;;6311263;28;20281;-66
2024/04/05 08:54:22;;;;;;;9.07;2.57;;;18.90;69.30;;;;;;6308884;28;20588;-66
2024/04/05 08:57:29;;;;;;;4.50;1.80;;;19.00;69.10;;;;;;6308794;28;20192;-67
2024/04/05 09:00:30;;;;;;;3.20;1.77;;;19.10;69.50;;;;;;6303325;28;20272;-65
2024/04/05 09:03:31;;;;;;;7.07;1.80;;;19.20;68.50;;;;;;6300889;28;20325;-65
2024/04/05 09:06:31;;;;;;;3.17;1.97;;;19.40;68.50;;;;;;6301447;28;20196;-65
2024/04/05 09:09:33;;;;;;;2.60;2.20;;;19.60;68.50;;;;;;6301286;28;20253;-66
2024/04/05 09:12:34;;;;;;;5.80;2.20;;;19.70;67.90;;;;;;6300699;28;20278;-66
2024/04/05 09:15:34;;;;;;;7.43;1.80;;;19.80;66.60;;;;;;6300601;28;20213;-66
2024/04/05 09:18:35;;;;;;;3.50;1.83;;;19.80;66.80;;;;;;6300506;28;20234;-66
2024/04/05 09:21:43;;;;;;;6.43;2.37;;;19.80;66.50;;;;;;6300336;28;20181;-66
2024/04/05 09:24:47;;;;;;;4.73;1.83;;;19.80;66.00;;;;;;6300284;28;20277;-65
2024/04/05 09:27:48;;;;;;;3.47;1.97;;;19.90;66.10;;;;;;6283697;28;20199;-67
2024/04/05 09:30:57;;;;;;;4.50;1.77;;;19.90;65.80;;;;;;6299691;28;20593;-67
2024/04/05 09:34:10;;;;;;;6.20;2.20;;;20.00;66.10;;;;;;6299893;28;20241;-65
2024/04/05 09:37:13;;;;;;;2.30;1.80;;;20.20;65.70;;;;;;6300108;28;20196;-65
2024/04/05 09:40:17;;;;;;;5.50;2.00;;;20.20;65.40;;;;;;6300095;28;20243;-66
2024/04/05 09:43:20;;;;;;;8.33;1.80;;;20.40;63.30;;;;;;6300232;28;20280;-67
2024/04/05 09:46:24;;;;;;;6.33;1.57;;;20.60;63.70;;;;;;6300268;28;20585;-66
2024/04/05 09:49:25;;;;;;;6.20;2.40;;;20.80;62.60;;;;;;6299838;28;20235;-67
2024/04/05 09:52:33;;;;;;;5.40;1.60;;;20.70;62.10;;;;;;6300082;28;20463;-68
2024/04/05 09:55:38;;;;;;;4.10;1.60;;;20.60;62.10;;;;;;6283614;28;20303;-66
2024/04/05 09:58:40;;;;;;;5.60;1.93;;;20.70;63.70;;;;;;6299619;28;20257;-67
2024/04/05 10:01:42;;;;;;;5.93;1.80;;;20.80;64.20;;;;;;6299870;28;20284;-66
2024/04/05 10:04:44;;;;;;;2.27;1.60;;;21.00;62.80;;;;;;6299844;28;20312;-66
2024/04/05 10:07:45;;;;;;;3.87;1.50;;;21.00;60.50;;;;;;6302501;28;20704;-67
2024/04/05 10:10:46;;;;;;;2.70;1.77;;;21.10;61.50;;;;;;6305267;28;20573;-67
2024/04/05 10:13:46;;;;;;;3.33;1.47;;;21.20;60.90;;;;;;6314345;28;20223;-65
2024/04/05 10:16:48;;;;;;;2.33;1.50;;;21.30;61.10;;;;;;6306361;28;20663;-67
2024/04/05 10:19:49;;;;;;;2.93;1.53;;;21.30;59.50;;;;;;6304636;28;20201;-66
2024/04/05 10:22:59;;;;;;;2.53;1.40;;;21.40;58.20;;;;;;6304236;28;20629;-68
2024/04/05 10:26:01;;;;;;;4.87;1.57;;;21.50;58.90;;;;;;6287925;28;20630;-66
2024/04/05 10:29:06;;;;;;;4.10;1.83;;;21.50;57.70;;;;;;6303982;28;20284;-68
2024/04/05 10:32:08;;;;;;;5.53;1.90;;;21.30;59.30;;;;;;6304233;28;20662;-67
2024/04/05 10:35:09;;;;;;;2.93;1.60;;;21.40;59.40;;;;;;6303516;28;20300;-67
2024/04/05 10:38:11;;;;;;;3.03;1.90;;;21.60;59.20;;;;;;6304252;28;20196;-67
2024/04/05 10:41:14;;;;;;;5.70;1.43;;;21.80;59.50;;;;;;6303571;28;20277;-68
2024/04/05 10:44:15;;;;;;;3.73;1.90;;;21.80;57.90;;;;;;6303680;28;20280;-68
2024/04/05 10:47:16;;;;;;;4.07;1.77;;;21.80;58.10;;;;;;6286883;28;20257;-68
2024/04/05 10:50:17;;;;;;;2.07;1.87;;;21.90;57.60;;;;;;6303819;28;20195;-68
2024/04/05 10:53:20;;;;;;;3.43;1.87;;;21.90;58.20;;;;;;6303826;28;20296;-66
2024/04/05 10:56:21;;;;;;;2.87;1.63;;;21.90;58.60;;;;;;6286481;28;20285;-68
2024/04/05 10:59:22;;;;;;;2.03;1.60;;;21.90;59.30;;;;;;6303530;28;20462;-66
2024/04/05 11:02:22;;;;;;;3.73;1.70;;;21.90;58.30;;;;;;6286386;28;20185;-66
2024/04/05 11:05:23;;;;;;;2.80;1.70;;;21.70;56.90;;;;;;6303564;28;20335;-67
2024/04/05 11:08:25;;;;;;;2.80;1.93;;;21.90;58.40;;;;;;6303606;28;20292;-65
2024/04/05 11:11:26;;;;;;;3.10;1.83;;;22.00;57.30;;;;;;6290729;28;20597;-66
2024/04/05 11:14:27;;;;;;;3.97;1.90;;;22.10;57.60;;;;;;6304257;28;20212;-66
2024/04/05 11:17:31;;;;;;;4.33;1.70;;;22.10;57.30;;;;;;6304307;28;20573;-66
2024/04/05 11:20:33;;;;;;;2.93;1.57;;;22.10;57.50;;;;;;6303420;28;20201;-67
2024/04/05 11:23:34;;;;;;;3.37;1.87;;;22.20;57.70;;;;;;6303440;28;20269;-66
2024/04/05 11:26:35;;;;;;;2.60;1.93;;;22.10;57.20;;;;;;6304019;28;20185;-67
2024/04/05 11:29:39;;;;;;;5.77;2.47;;;22.00;57.20;;;;;;6308436;28;20197;-67
2024/04/05 11:32:41;;;;;;;2.90;1.87;;;21.80;57.10;;;;;;6312970;28;20209;-67
2024/04/05 11:35:43;;;;;;;1.90;1.40;;;21.70;57.70;;;;;;6308940;28;20217;-68
2024/04/05 11:38:44;;;;;;;4.87;2.20;;;21.50;57.20;;;;;;6317756;28;20194;-68
2024/04/05 11:41:45;;;;;;;2.70;1.60;;;21.30;57.40;;;;;;6322492;28;20181;-67
2024/04/05 11:44:47;;;;;;;5.10;2.00;;;21.10;58.50;;;;;;6316966;28;20250;-67
2024/04/05 11:47:47;;;;;;;5.17;1.70;;;21.00;58.90;;;;;;6298224;28;20273;-67
2024/04/05 11:50:48;;;;;;;2.83;1.83;;;20.90;58.30;;;;;;6286854;28;20597;-67
2024/04/05 11:53:49;;;;;;;4.93;2.03;;;20.90;58.00;;;;;;6286419;28;20209;-67
2024/04/05 11:56:50;;;;;;;3.97;1.80;;;21.00;58.30;;;;;;6302805;28;20272;-67
2024/04/05 11:59:50;;;;;;;4.37;1.83;;;21.10;58.50;;;;;;6302408;28;20189;-68
2024/04/05 12:02:51;;;;;;;3.83;1.50;;;21.20;58.20;;;;;;6286102;28;20219;-68
2024/04/05 12:05:52;;;;;;;3.53;1.80;;;21.50;57.80;;;;;;6302485;28;20622;-68
2024/04/05 12:08:53;;;;;;;3.53;2.00;;;21.80;56.30;;;;;;6302294;28;20662;-66
2024/04/05 12:11:54;;;;;;;2.50;1.80;;;22.10;56.50;;;;;;6301839;28;20533;-67
2024/04/05 12:14:55;;;;;;;2.00;1.60;;;22.40;55.20;;;;;;6301912;28;20552;-66
2024/04/05 12:17:56;;;;;;;4.80;2.00;;;22.40;54.80;;;;;;6302569;28;20280;-66
2024/04/05 12:20:57;;;;;;;3.80;1.80;;;22.00;55.20;;;;;;6301583;28;20183;-66
2024/04/05 12:23:58;;;;;;;6.50;2.50;;;21.90;56.40;;;;;;6301177;28;20254;-66
2024/04/05 12:26:59;;;;;;;5.40;2.20;;;21.80;55.80;;;;;;6301192;28;20193;-66
2024/04/05 12:29:59;;;;;;;2.70;1.80;;;21.90;55.10;;;;;;6283265;28;20188;-67
2024/04/05 12:33:00;;;;;;;3.70;2.10;;;22.00;55.20;;;;;;6284119;28;20246;-66
2024/04/05 12:36:03;;;;;;;2.27;1.80;;;22.10;55.10;;;;;;6301052;28;20196;-66
2024/04/05 12:39:14;;;;;;;1.97;1.60;;;22.20;54.90;;;;;;6300603;28;20280;-66
2024/04/05 12:42:15;;;;;;;3.67;2.30;;;22.10;55.00;;;;;;6300538;28;20202;-66
2024/04/05 12:45:16;;;;;;;3.00;1.70;;;22.20;54.90;;;;;;6300363;28;20209;-66
2024/04/05 12:48:17;;;;;;;3.90;2.10;;;22.00;55.50;;;;;;6284460;28;20577;-66
2024/04/05 12:51:17;;;;;;;3.93;1.80;;;21.90;56.00;;;;;;6299829;28;20203;-65
2024/04/05 12:54:18;;;;;;;2.23;2.03;;;21.80;56.90;;;;;;6299984;28;20294;-65
2024/04/05 12:57:21;;;;;;;3.67;1.70;;;21.70;57.00;;;;;;6300544;28;20282;-66
2024/04/05 13:00:23;;;;;;;8.97;2.37;;;21.60;57.20;;;;;;6300549;28;20224;-66
2024/04/05 13:03:24;;;;;;;2.40;2.20;;;21.60;57.50;;;;;;6307098;28;20217;-66
2024/04/05 13:06:25;;;;;;;5.60;1.93;;;21.60;58.50;;;;;;6283464;28;20312;-66
2024/04/05 13:09:26;;;;;;;4.13;2.30;;;21.40;59.30;;;;;;6283344;28;20236;-65
2024/04/05 13:12:27;;;;;;;3.87;1.80;;;21.30;59.40;;;;;;6300268;28;20279;-66
2024/04/05 13:15:28;;;;;;;1.87;1.47;;;21.20;58.80;;;;;;6300145;28;20209;-66
2024/04/05 13:18:28;;;;;;;2.87;1.83;;;21.00;58.20;;;;;;6300481;28;20201;-66
2024/04/05 13:21:31;;;;;;;2.07;1.70;;;20.80;59.30;;;;;;6306461;28;20185;-66
2024/04/05 13:24:32;;;;;;;2.50;1.80;;;20.60;59.90;;;;;;6312603;28;20231;-65
2024/04/05 13:27:33;;;;;;;3.53;2.00;;;20.50;59.80;;;;;;6312333;28;20185;-65
2024/04/05 13:30:34;;;;;;;3.80;1.73;;;20.30;59.00;;;;;;6312719;28;20292;-65
2024/04/05 13:33:36;;;;;;;3.13;1.80;;;20.20;57.40;;;;;;6296808;28;20218;-66
2024/04/05 13:36:40;;;;;;;1.80;1.60;;;20.00;57.70;;;;;;6307170;28;20216;-67
2024/04/05 13:39:40;;;;;;;3.00;1.90;;;19.80;57.70;;;;;;6302564;28;20272;-65
2024/04/05 13:42:44;;;;;;;4.30;1.90;;;19.80;57.50;;;;;;6285132;28;20204;-65
2024/04/05 13:45:45;;;;;;;2.10;1.80;;;19.70;57.30;;;;;;6301132;28;20280;-66
2024/04/05 13:48:53;;;;;;;5.03;1.77;;;19.60;58.10;;;;;;6300884;28;20189;-65
2024/04/05 13:51:54;;;;;;;3.00;2.17;;;19.50;58.60;;;;;;6300472;28;20669;-66
2024/04/05 13:54:54;;;;;;;3.67;1.87;;;19.50;58.70;;;;;;6301087;28;20239;-65
2024/04/05 13:57:55;;;;;;;2.20;2.00;;;19.40;58.40;;;;;;6300658;28;20189;-66
2024/04/05 14:00:57;;;;;;;2.30;1.97;;;19.40;58.90;;;;;;6301283;28;20215;-66
2024/04/05 14:03:57;;;;;;;2.53;2.20;;;19.30;58.90;;;;;;6301219;28;20192;-66
2024/04/05 14:06:58;;;;;;;2.70;1.70;;;19.30;58.40;;;;;;6304418;28;20524;-65
2024/04/05 14:09:59;;;;;;;3.50;1.90;;;19.40;58.30;;;;;;6314768;28;20200;-65
2024/04/05 14:13:00;;;;;;;2.20;2.00;;;19.50;58.80;;;;;;6312539;28;20561;-67
2024/04/05 14:16:05;;;;;;;4.60;2.30;;;19.60;59.10;;;;;;6315470;28;20280;-66
2024/04/05 14:19:06;;;;;;;1.90;1.80;;;19.70;58.90;;;;;;6305630;28;20753;-66
2024/04/05 14:22:07;;;;;;;2.10;1.90;;;19.80;58.70;;;;;;6303001;28;20189;-65
2024/04/05 14:25:09;;;;;;;5.50;1.80;;;19.80;58.90;;;;;;6311229;28;20225;-66
2024/04/05 14:28:11;;;;;;;4.30;1.80;;;19.90;59.80;;;;;;6282899;28;20201;-66
2024/04/05 14:31:12;;;;;;;3.60;1.83;;;20.10;59.30;;;;;;6299360;28;20280;-66
2024/04/05 14:34:13;;;;;;;3.00;1.73;;;20.20;59.60;;;;;;6300094;28;20650;-66
2024/04/05 14:37:14;;;;;;;5.70;1.93;;;20.30;59.10;;;;;;6299941;28;20204;-67
2024/04/05 14:40:15;;;;;;;4.70;1.80;;;20.40;59.50;;;;;;6300115;28;20199;-65
2024/04/05 14:43:16;;;;;;;3.90;1.90;;;20.50;59.30;;;;;;6283261;28;20280;-66
2024/04/05 14:46:17;;;;;;;2.13;1.90;;;20.50;59.00;;;;;;6300193;28;20189;-66
2024/04/05 14:49:18;;;;;;;3.10;1.90;;;20.50;59.60;;;;;;6300852;28;20250;-65
2024/04/05 14:52:19;;;;;;;2.90;1.70;;;20.50;59.70;;;;;;6299813;28;20185;-66
2024/04/05 14:55:20;;;;;;;3.33;1.60;;;20.30;60.00;;;;;;6304088;28;20309;-67
2024/04/05 14:58:20;;;;;;;3.47;1.83;;;20.20;60.50;;;;;;6304394;28;20230;-66
2024/04/05 15:01:21;;;;;;;2.37;1.73;;;20.20;60.80;;;;;;6305666;28;20185;-66
2024/04/05 15:04:22;;;;;;;1.70;1.60;;;20.10;61.00;;;;;;6306918;28;20236;-66
2024/04/05 15:07:23;;;;;;;2.63;2.00;;;20.10;61.30;;;;;;6306934;28;20288;-67
2024/04/05 15:10:25;;;;;;;6.73;2.00;;;20.10;61.40;;;;;;6308032;28;20264;-66
2024/04/05 15:13:26;;;;;;;2.40;2.10;;;20.00;61.00;;;;;;6306177;28;20300;-66
2024/04/05 15:16:27;;;;;;;2.23;1.93;;;20.00;60.50;;;;;;6306229;28;20246;-66
2024/04/05 15:19:28;;;;;;;2.40;1.80;;;19.80;60.70;;;;;;6307008;28;20199;-66
2024/04/05 15:22:29;;;;;;;2.70;1.73;;;19.80;61.20;;;;;;6304686;28;20305;-66
2024/04/05 15:25:30;;;;;;;2.50;1.70;;;19.70;60.40;;;;;;6303739;28;20200;-66
2024/04/05 15:28:34;;;;;;;3.83;1.70;;;19.70;61.00;;;;;;6304463;28;20597;-67
2024/04/05 15:31:37;;;;;;;1.83;1.60;;;19.60;61.80;;;;;;6303186;28;20265;-67
2024/04/05 15:34:38;;;;;;;3.23;2.23;;;19.60;61.90;;;;;;6303299;28;20304;-66
2024/04/05 15:37:39;;;;;;;2.70;1.97;;;19.60;62.10;;;;;;6302477;28;20195;-67
2024/04/05 15:40:39;;;;;;;3.47;1.93;;;19.60;62.00;;;;;;6313708;28;20189;-66
2024/04/05 15:43:41;;;;;;;2.47;1.90;;;19.60;61.70;;;;;;6302321;28;20280;-67